createdAt,value
2018-07-21T00:00:51.189Z,95196.83
2018-07-21T00:03:20.537Z,95196.99
2018-07-21T00:05:49.874Z,95201.69
2018-07-21T00:08:19.193Z,95200.32
2018-07-21T00:10:48.578Z,95205.09
2018-07-21T00:13:17.967Z,95200.70
2018-07-21T00:15:47.302Z,95198.10
2018-07-21T00:18:16.671Z,95196.57
2018-07-21T00:20:46.022Z,95199.61
2018-07-21T00:23:15.415Z,95201.19
2018-07-21T00:25:44.797Z,95205.66
2018-07-21T00:28:14.437Z,95204.88
2018-07-21T00:30:43.804Z,95204.63
2018-07-21T00:33:13.187Z,95209.25
2018-07-21T00:35:42.657Z,95204.31
2018-07-21T00:38:12.307Z,95201.23
2018-07-21T00:40:42.081Z,95206.80
2018-07-21T00:43:11.429Z,95201.30
2018-07-21T00:45:40.785Z,95206.80
2018-07-21T00:48:10.376Z,95205.38
2018-07-21T00:50:39.701Z,95195.08
2018-07-21T00:53:09.055Z,95202.25
2018-07-21T00:55:38.410Z,95204.72
2018-07-21T00:58:11.252Z,95210.39
2018-07-21T01:00:40.738Z,95211.49
2018-07-21T01:03:10.066Z,95210.39
2018-07-21T01:05:39.425Z,95207.90
2018-07-21T01:08:09.113Z,95208.14
2018-07-21T01:10:38.462Z,95210.69
2018-07-21T01:13:07.829Z,95211.81
2018-07-21T01:15:37.154Z,95207.59
2018-07-21T01:18:06.866Z,95204.30
2018-07-21T01:20:36.565Z,95205.17
2018-07-21T01:23:06.027Z,95209.02
2018-07-21T01:25:35.430Z,95201.58
2018-07-21T01:28:05.083Z,95203.20
2018-07-21T01:30:34.409Z,95202.88
2018-07-21T01:33:03.791Z,95199.84
2018-07-21T01:35:33.139Z,95202.07
2018-07-21T01:38:02.450Z,95201.37
2018-07-21T01:40:38.153Z,95204.16
2018-07-21T01:43:07.539Z,95207.48
2018-07-21T01:45:37.377Z,95212.14
2018-07-21T01:48:07.229Z,95196.50
2018-07-21T01:50:36.600Z,95195.22
2018-07-21T01:53:05.943Z,95195.47
2018-07-21T01:55:35.299Z,95200.56
2018-07-21T01:58:04.670Z,95208.77
2018-07-21T02:00:34.082Z,95211.26
2018-07-21T02:03:03.625Z,95216.61
2018-07-21T02:05:32.957Z,95211.66
2018-07-21T02:08:02.328Z,95215.07
2018-07-21T02:10:31.673Z,95223.20
2018-07-21T02:13:01.313Z,95227.69
2018-07-21T02:15:30.712Z,95235.41
2018-07-21T02:18:00.273Z,95233.84
2018-07-21T02:20:29.758Z,95231.59
2018-07-21T02:22:59.253Z,95227.53
2018-07-21T02:25:28.645Z,95226.88
2018-07-21T02:27:58.002Z,95231.42
2018-07-21T02:30:27.417Z,95229.84
2018-07-21T02:32:56.734Z,95233.73
2018-07-21T02:35:26.107Z,95239.56
2018-07-21T02:37:55.724Z,95238.53
2018-07-21T02:40:25.605Z,95239.41
2018-07-21T02:42:54.925Z,95242.85
2018-07-21T02:45:24.016Z,95236.14
2018-07-21T02:47:53.116Z,95224.50
2018-07-21T02:50:22.485Z,95232.55
2018-07-21T02:52:51.842Z,95229.08
2018-07-21T02:55:21.127Z,95228.30
2018-07-21T02:57:50.449Z,95223.57
2018-07-21T03:00:19.780Z,95225.39
2018-07-21T03:02:49.173Z,95225.27
2018-07-21T03:05:18.552Z,95222.63
2018-07-21T03:07:47.880Z,95218.67
2018-07-21T03:10:17.245Z,95220.80
2018-07-21T03:12:46.679Z,95221.34
2018-07-21T03:15:16.015Z,95227.06
2018-07-21T03:17:45.349Z,95229.73
2018-07-21T03:20:14.852Z,95223.73
2018-07-21T03:22:45.060Z,95231.30
2018-07-21T03:25:14.393Z,95230.67
2018-07-21T03:27:43.861Z,95226.92
2018-07-21T03:30:13.181Z,95229.05
2018-07-21T03:32:42.517Z,95228.09
2018-07-21T03:35:11.853Z,95222.13
2018-07-21T03:37:41.226Z,95216.30
2018-07-21T03:40:10.543Z,95213.38
2018-07-21T03:42:39.889Z,95214.48
2018-07-21T03:45:09.267Z,95211.14
2018-07-21T03:47:38.623Z,95210.27
2018-07-21T03:50:08.236Z,95208.91
2018-07-21T03:52:37.627Z,95211.69
2018-07-21T03:55:07.062Z,95209.45
2018-07-21T03:57:36.358Z,95210.48
2018-07-21T04:00:06.217Z,95209.78
2018-07-21T04:02:36.611Z,95202.05
2018-07-21T04:05:06.632Z,95205.53
2018-07-21T04:07:35.955Z,95207.95
2018-07-21T04:10:06.295Z,95209.45
2018-07-21T04:12:35.665Z,95212.37
2018-07-21T04:15:05.381Z,95208.97
2018-07-21T04:17:34.744Z,95206.59
2018-07-21T04:20:04.108Z,95204.17
2018-07-21T04:22:33.492Z,95204.96
2018-07-21T04:25:02.834Z,95207.73
2018-07-21T04:27:32.181Z,95211.41
2018-07-21T04:30:01.536Z,95212.69
2018-07-21T04:32:30.897Z,95214.13
2018-07-21T04:35:00.045Z,95209.04
2018-07-21T04:37:29.441Z,95217.58
2018-07-21T04:39:58.899Z,95223.39
2018-07-21T04:42:28.268Z,95217.32
2018-07-21T04:44:57.705Z,95221.39
2018-07-21T04:47:27.011Z,95219.96
2018-07-21T04:49:57.385Z,95225.84
2018-07-21T04:52:26.740Z,95229.77
2018-07-21T04:54:56.129Z,95237.34
2018-07-21T04:57:25.705Z,95243.25
2018-07-21T04:59:55.044Z,95237.97
2018-07-21T05:02:24.413Z,95239.88
2018-07-21T05:04:53.783Z,95235.67
2018-07-21T05:07:23.216Z,95234.86
2018-07-21T05:09:52.556Z,95238.52
2018-07-21T05:12:21.895Z,95238.66
2018-07-21T05:14:51.227Z,95238.47
2018-07-21T05:17:20.559Z,95238.82
2018-07-21T05:19:49.893Z,95238.42
2018-07-21T05:22:19.238Z,95237.87
2018-07-21T05:24:48.553Z,95237.98
2018-07-21T05:27:17.912Z,95244.20
2018-07-21T05:29:47.430Z,95241.91
2018-07-21T05:32:16.984Z,95247.07
2018-07-21T05:34:46.406Z,95242.12
2018-07-21T05:37:15.778Z,95245.41
2018-07-21T05:39:45.133Z,95237.63
2018-07-21T05:42:14.487Z,95241.14
2018-07-21T05:44:43.901Z,95240.66
2018-07-21T05:47:13.219Z,95237.47
2018-07-21T05:49:42.541Z,95243.16
2018-07-21T05:52:11.929Z,95251.60
2018-07-21T05:54:41.405Z,95247.03
2018-07-21T05:57:10.700Z,95248.57
2018-07-21T05:59:40.033Z,95247.57
2018-07-21T06:02:09.549Z,95246.16
2018-07-21T06:04:38.950Z,95252.16
2018-07-21T06:07:08.307Z,95252.63
2018-07-21T06:09:37.605Z,95259.44
2018-07-21T06:12:06.987Z,95268.55
2018-07-21T06:14:36.317Z,95266.16
2018-07-21T06:17:05.931Z,95270.48
2018-07-21T06:19:35.029Z,95276.67
2018-07-21T06:22:04.409Z,95271.68
2018-07-21T06:24:33.835Z,95279.42
2018-07-21T06:27:03.253Z,95277.84
2018-07-21T06:29:32.745Z,95281.42
2018-07-21T06:32:05.233Z,95281.03
2018-07-21T06:34:34.632Z,95285.41
2018-07-21T06:37:03.960Z,95289.77
2018-07-21T06:39:33.362Z,95291.98
2018-07-21T06:42:02.853Z,95294.09
2018-07-21T06:44:32.229Z,95291.70
2018-07-21T06:47:01.649Z,95299.94
2018-07-21T06:49:31.057Z,95297.87
2018-07-21T06:52:00.421Z,95297.34
2018-07-21T06:54:29.813Z,95291.52
2018-07-21T06:56:59.180Z,95294.64
2018-07-21T06:59:28.614Z,95300.28
2018-07-21T07:01:58.021Z,95301.05
2018-07-21T07:04:27.425Z,95304.70
2018-07-21T07:06:56.870Z,95307.77
2018-07-21T07:09:26.241Z,95305.16
2018-07-21T07:11:55.585Z,95306.57
2018-07-21T07:14:24.927Z,95306.83
2018-07-21T07:16:54.415Z,95302.44
2018-07-21T07:19:23.812Z,95302.31
2018-07-21T07:21:53.195Z,95302.25
2018-07-21T07:24:22.634Z,95316.12
2018-07-21T07:26:51.977Z,95311.89
2018-07-21T07:29:21.495Z,95319.95
2018-07-21T07:31:50.952Z,95323.86
2018-07-21T07:34:20.322Z,95318.21
2018-07-21T07:36:49.737Z,95327.47
2018-07-21T07:39:19.258Z,95325.33
2018-07-21T07:41:48.781Z,95326.38
2018-07-21T07:44:18.161Z,95331.72
2018-07-21T07:46:47.545Z,95325.30
2018-07-21T07:49:16.907Z,95327.06
2018-07-21T07:51:46.315Z,95339.34
2018-07-21T07:54:15.763Z,95342.20
2018-07-21T07:56:45.951Z,95349.78
2018-07-21T07:59:15.345Z,95343.50
2018-07-21T08:01:44.729Z,95345.29
2018-07-21T08:04:14.135Z,95346.27
2018-07-21T08:06:43.634Z,95348.54
2018-07-21T08:09:13.606Z,95346.84
2018-07-21T08:11:43.667Z,95340.53
2018-07-21T08:14:13.102Z,95339.34
2018-07-21T08:16:42.764Z,95345.84
2018-07-21T08:19:12.107Z,95335.67
2018-07-21T08:21:41.481Z,95339.47
2018-07-21T08:24:11.328Z,95337.83
2018-07-21T08:26:40.709Z,95340.91
2018-07-21T08:29:10.093Z,95339.61
2018-07-21T08:31:39.463Z,95334.44
2018-07-21T08:34:08.815Z,95329.53
2018-07-21T08:36:38.139Z,95340.16
2018-07-21T08:39:08.892Z,95332.08
2018-07-21T08:41:38.301Z,95339.13
2018-07-21T08:44:07.777Z,95345.29
2018-07-21T08:46:37.197Z,95342.47
2018-07-21T08:49:06.618Z,95338.86
2018-07-21T08:51:36.070Z,95346.03
2018-07-21T08:54:05.434Z,95353.58
2018-07-21T08:56:34.891Z,95353.63
2018-07-21T08:59:03.985Z,95361.63
2018-07-21T09:01:33.319Z,95357.92
2018-07-21T09:04:02.765Z,95356.73
2018-07-21T09:06:32.145Z,95361.27
2018-07-21T09:09:02.474Z,95355.61
2018-07-21T09:11:32.064Z,95357.23
2018-07-21T09:14:01.496Z,95361.56
2018-07-21T09:16:31.021Z,95360.41
2018-07-21T09:19:00.503Z,95357.42
2018-07-21T09:21:30.042Z,95356.12
2018-07-21T09:23:59.727Z,95361.18
2018-07-21T09:26:29.197Z,95357.36
2018-07-21T09:28:58.599Z,95361.42
2018-07-21T09:31:28.507Z,95361.69
2018-07-21T09:33:58.123Z,95359.30
2018-07-21T09:36:27.537Z,95361.20
2018-07-21T09:38:56.853Z,95368.05
2018-07-21T09:41:26.259Z,95361.10
2018-07-21T09:43:55.680Z,95363.39
2018-07-21T09:46:25.057Z,95366.38
2018-07-21T09:48:54.397Z,95364.86
2018-07-21T09:51:23.747Z,95366.49
2018-07-21T09:53:52.945Z,95367.41
2018-07-21T09:56:22.433Z,95373.52
2018-07-21T09:58:51.852Z,95361.87
2018-07-21T10:01:21.197Z,95367.39
2018-07-21T10:03:50.616Z,95366.09
2018-07-21T10:06:19.974Z,95364.30
2018-07-21T10:08:49.374Z,95360.72
2018-07-21T10:11:18.781Z,95365.19
2018-07-21T10:13:48.239Z,95362.35
2018-07-21T10:16:17.601Z,95363.98
2018-07-21T10:18:46.698Z,95371.30
2018-07-21T10:21:16.102Z,95373.67
2018-07-21T10:23:45.474Z,95370.45
2018-07-21T10:26:20.111Z,95371.85
2018-07-21T10:28:54.780Z,95373.09
2018-07-21T10:31:24.295Z,95377.21
2018-07-21T10:33:53.778Z,95374.19
2018-07-21T10:36:23.085Z,95379.36
2018-07-21T10:38:52.496Z,95373.87
2018-07-21T10:41:21.865Z,95371.59
2018-07-21T10:43:51.312Z,95368.89
2018-07-21T10:46:20.705Z,95371.98
2018-07-21T10:48:50.025Z,95368.41
2018-07-21T10:51:19.489Z,95366.22
2018-07-21T10:53:48.844Z,95362.94
2018-07-21T10:56:18.249Z,95361.81
2018-07-21T10:58:47.946Z,95368.52
2018-07-21T11:01:17.775Z,95369.53
2018-07-21T11:03:47.249Z,95369.39
2018-07-21T11:06:16.666Z,95360.89
2018-07-21T11:08:46.005Z,95361.20
2018-07-21T11:11:15.476Z,95363.25
2018-07-21T11:13:44.817Z,95364.97
2018-07-21T11:16:14.214Z,95365.58
2018-07-21T11:18:43.619Z,95361.89
2018-07-21T11:21:12.729Z,95366.49
2018-07-21T11:23:42.119Z,95355.70
2018-07-21T11:26:11.454Z,95354.03
2018-07-21T11:28:40.822Z,95354.32
2018-07-21T11:31:10.178Z,95358.56
2018-07-21T11:33:39.605Z,95354.39
2018-07-21T11:36:09.223Z,95353.42
2018-07-21T11:38:38.330Z,95349.88
2018-07-21T11:41:07.749Z,95353.95
2018-07-21T11:43:37.345Z,95351.27
2018-07-21T11:46:06.701Z,95345.63
2018-07-21T11:48:36.063Z,95345.59
2018-07-21T11:51:05.433Z,95345.47
2018-07-21T11:53:34.894Z,95342.95
2018-07-21T11:56:04.281Z,95343.95
2018-07-21T11:58:33.708Z,95336.43
2018-07-21T12:01:03.218Z,95341.16
2018-07-21T12:03:32.571Z,95337.14
2018-07-21T12:06:01.979Z,95346.45
2018-07-21T12:08:31.591Z,95344.84
2018-07-21T12:11:01.137Z,95346.45
2018-07-21T12:13:30.620Z,95343.32
2018-07-21T12:16:00.044Z,95339.66
2018-07-21T12:18:29.278Z,95348.83
2018-07-21T12:20:58.835Z,95348.28
2018-07-21T12:23:28.436Z,95345.97
2018-07-21T12:25:57.850Z,95344.13
2018-07-21T12:28:27.208Z,95344.13
2018-07-21T12:30:56.773Z,95348.35
2018-07-21T12:33:26.203Z,95338.91
2018-07-21T12:35:55.562Z,95334.78
2018-07-21T12:38:24.991Z,95338.78
2018-07-21T12:40:54.436Z,95342.30
2018-07-21T12:43:23.900Z,95334.94
2018-07-21T12:45:53.257Z,95335.13
2018-07-21T12:48:23.046Z,95333.30
2018-07-21T12:50:52.776Z,95329.94
2018-07-21T12:53:22.155Z,95332.57
2018-07-21T12:55:51.576Z,95325.16
2018-07-21T12:58:20.938Z,95319.97
2018-07-21T13:00:50.389Z,95322.53
2018-07-21T13:03:19.748Z,95319.74
2018-07-21T13:05:49.246Z,95321.87
2018-07-21T13:08:18.937Z,95321.56
2018-07-21T13:10:48.629Z,95318.52
2018-07-21T13:13:18.157Z,95318.19
2018-07-21T13:15:48.012Z,95309.90
2018-07-21T13:18:17.746Z,95307.44
2018-07-21T13:20:47.342Z,95302.58
2018-07-21T13:23:16.757Z,95296.77
2018-07-21T13:25:46.111Z,95303.29
2018-07-21T13:28:15.473Z,95295.15
2018-07-21T13:30:44.861Z,95293.23
2018-07-21T13:33:14.364Z,95291.95
2018-07-21T13:35:43.862Z,95291.56
2018-07-21T13:38:13.828Z,95290.20
2018-07-21T13:40:43.846Z,95284.70
2018-07-21T13:43:13.291Z,95282.72
2018-07-21T13:45:42.696Z,95282.77
2018-07-21T13:48:12.183Z,95278.72
2018-07-21T13:50:41.312Z,95278.92
2018-07-21T13:53:10.651Z,95274.98
2018-07-21T13:55:40.020Z,95270.59
2018-07-21T13:58:09.418Z,95271.94
2018-07-21T14:00:38.777Z,95269.08
2018-07-21T14:03:08.139Z,95267.86
2018-07-21T14:05:37.505Z,95265.14
2018-07-21T14:08:08.234Z,95268.02
2018-07-21T14:10:37.629Z,95269.97
2018-07-21T14:13:07.500Z,95271.33
2018-07-21T14:15:37.644Z,95264.44
2018-07-21T14:18:07.963Z,95269.57
2018-07-21T14:20:37.309Z,95269.16
2018-07-21T14:23:06.675Z,95266.52
2018-07-21T14:25:36.149Z,95264.25
2018-07-21T14:28:05.899Z,95273.59
2018-07-21T14:30:35.250Z,95266.17
2018-07-21T14:33:04.706Z,95258.54
2018-07-21T14:35:34.586Z,95262.58
2018-07-21T14:38:04.029Z,95258.81
2018-07-21T14:40:34.088Z,95261.58
2018-07-21T14:43:03.481Z,95260.59
2018-07-21T14:45:32.933Z,95262.25
2018-07-21T14:48:02.344Z,95256.28
2018-07-21T14:50:31.804Z,95257.69
2018-07-21T14:53:01.176Z,95256.63
2018-07-21T14:55:30.607Z,95258.58
2018-07-21T14:58:00.307Z,95252.08
2018-07-21T15:00:29.698Z,95257.76
2018-07-21T15:02:59.113Z,95257.42
2018-07-21T15:05:28.564Z,95250.13
2018-07-21T15:07:57.933Z,95246.73
2018-07-21T15:10:27.634Z,95242.77
2018-07-21T15:12:56.990Z,95249.42
2018-07-21T15:15:26.705Z,95251.72
2018-07-21T15:17:56.142Z,95244.87
2018-07-21T15:20:25.755Z,95246.29
2018-07-21T15:22:55.119Z,95247.92
2018-07-21T15:25:24.437Z,95249.80
2018-07-21T15:27:53.800Z,95247.49
2018-07-21T15:30:23.162Z,95242.67
2018-07-21T15:32:52.550Z,95247.23
2018-07-21T15:35:21.949Z,95247.02
2018-07-21T15:37:51.313Z,95255.17
2018-07-21T15:40:20.684Z,95252.68
2018-07-21T15:42:50.002Z,95254.04
2018-07-21T15:45:19.422Z,95244.54
2018-07-21T15:47:48.867Z,95247.17
2018-07-21T15:50:18.162Z,95246.88
2018-07-21T15:52:47.652Z,95250.14
2018-07-21T15:55:17.053Z,95251.58
2018-07-21T15:57:46.456Z,95251.59
2018-07-21T16:00:15.550Z,95251.82
2018-07-21T16:02:44.940Z,95255.12
2018-07-21T16:05:14.325Z,95258.78
2018-07-21T16:07:43.662Z,95247.44
2018-07-21T16:10:13.003Z,95249.91
2018-07-21T16:12:42.421Z,95247.58
2018-07-21T16:15:11.847Z,95248.31
2018-07-21T16:17:41.193Z,95246.07
2018-07-21T16:20:10.579Z,95248.78
2018-07-21T16:22:39.946Z,95242.88
2018-07-21T16:25:09.287Z,95245.27
2018-07-21T16:27:38.700Z,95245.13
2018-07-21T16:30:08.146Z,95243.66
2018-07-21T16:32:37.599Z,95245.13
2018-07-21T16:35:07.329Z,95247.74
2018-07-21T16:37:36.764Z,95240.73
2018-07-21T16:40:06.125Z,95243.59
2018-07-21T16:42:35.494Z,95239.86
2018-07-21T16:45:05.010Z,95240.48
2018-07-21T16:47:34.324Z,95234.99
2018-07-21T16:50:03.729Z,95237.08
2018-07-21T16:52:33.088Z,95229.27
2018-07-21T16:55:02.414Z,95236.27
2018-07-21T16:57:31.934Z,95229.16
2018-07-21T17:00:02.427Z,95232.05
2018-07-21T17:02:31.677Z,95224.30
2018-07-21T17:05:01.160Z,95220.27
2018-07-21T17:07:30.725Z,95220.34
2018-07-21T17:10:00.234Z,95220.09
2018-07-21T17:12:29.723Z,95223.55
2018-07-21T17:14:59.169Z,95225.72
2018-07-21T17:17:28.793Z,95229.59
2018-07-21T17:19:58.144Z,95236.58
2018-07-21T17:22:27.494Z,95230.36
2018-07-21T17:24:57.121Z,95231.08
2018-07-21T17:27:26.665Z,95229.23
2018-07-21T17:29:56.401Z,95238.91
2018-07-21T17:32:25.862Z,95237.55
2018-07-21T17:34:56.333Z,95234.69
2018-07-21T17:37:26.740Z,95231.88
2018-07-21T17:39:56.169Z,95238.50
2018-07-21T17:42:25.560Z,95248.55
2018-07-21T17:44:55.027Z,95244.66
2018-07-21T17:47:24.452Z,95238.02
2018-07-21T17:49:53.880Z,95241.70
2018-07-21T17:52:23.282Z,95238.58
2018-07-21T17:54:52.840Z,95236.68
2018-07-21T17:57:22.294Z,95242.73
2018-07-21T17:59:52.804Z,95246.44
2018-07-21T18:02:22.220Z,95253.17
2018-07-21T18:04:51.626Z,95254.86
2018-07-21T18:07:21.076Z,95250.58
2018-07-21T18:09:57.008Z,95254.80
2018-07-21T18:12:26.484Z,95253.77
2018-07-21T18:14:56.232Z,95251.86
2018-07-21T18:17:25.747Z,95251.46
2018-07-21T18:19:55.139Z,95254.88
2018-07-21T18:22:24.643Z,95245.16
2018-07-21T18:24:54.142Z,95254.39
2018-07-21T18:27:23.934Z,95256.19
2018-07-21T18:29:53.331Z,95250.75
2018-07-21T18:32:22.775Z,95252.51
2018-07-21T18:34:52.188Z,95256.08
2018-07-21T18:37:21.616Z,95253.21
2018-07-21T18:39:51.049Z,95258.84
2018-07-21T18:42:20.573Z,95260.45
2018-07-21T18:44:49.947Z,95258.59
2018-07-21T18:47:19.415Z,95269.36
2018-07-21T18:49:48.986Z,95267.87
2018-07-21T18:52:18.410Z,95274.16
2018-07-21T18:54:48.061Z,95266.75
2018-07-21T18:57:17.505Z,95276.86
2018-07-21T18:59:47.062Z,95277.63
2018-07-21T19:02:16.506Z,95291.94
2018-07-21T19:04:46.157Z,95290.19
2018-07-21T19:07:15.596Z,95291.00
2018-07-21T19:09:45.012Z,95293.62
2018-07-21T19:12:20.584Z,95291.66
2018-07-21T19:14:50.015Z,95289.22
2018-07-21T19:17:19.526Z,95298.92
2018-07-21T19:19:53.985Z,95312.33
2018-07-21T19:22:23.317Z,95305.19
2018-07-21T19:24:52.783Z,95312.87
2018-07-21T19:27:33.479Z,95314.75
2018-07-21T19:30:03.526Z,95319.58
2018-07-21T19:32:38.201Z,95324.16
2018-07-21T19:35:07.931Z,95323.88
2018-07-21T19:37:51.907Z,95327.39
2018-07-21T19:40:21.689Z,95322.53
2018-07-21T19:42:51.080Z,95319.95
2018-07-21T19:45:21.765Z,95323.72
2018-07-21T19:47:55.375Z,95329.05
2018-07-21T19:50:24.694Z,95336.87
2018-07-21T19:52:54.045Z,95340.06
2018-07-21T19:55:23.381Z,95336.92
2018-07-21T19:57:52.823Z,95338.88
2018-07-21T20:00:22.198Z,95335.81
2018-07-21T20:02:51.602Z,95334.89
2018-07-21T20:05:21.109Z,95341.35
2018-07-21T20:07:50.944Z,95344.60
2018-07-21T20:10:20.350Z,95347.12
2018-07-21T20:12:49.711Z,95346.87
2018-07-21T20:15:19.409Z,95350.77
2018-07-21T20:17:48.999Z,95344.92
2018-07-21T20:20:20.418Z,95345.95
2018-07-21T20:22:49.857Z,95346.87
2018-07-21T20:25:19.324Z,95348.48
2018-07-21T20:27:48.766Z,95349.64
2018-07-21T20:30:18.628Z,95357.37
2018-07-21T20:32:48.200Z,95359.95
2018-07-21T20:35:17.677Z,95353.01
2018-07-21T20:37:47.224Z,95360.08
2018-07-21T20:40:16.933Z,95357.38
2018-07-21T20:42:46.450Z,95353.50
2018-07-21T20:45:16.251Z,95357.74
2018-07-21T20:47:49.118Z,95359.64
2018-07-21T20:50:18.572Z,95361.84
2018-07-21T20:52:48.116Z,95362.98
2018-07-21T20:55:17.559Z,95367.84
2018-07-21T20:57:46.975Z,95365.91
2018-07-21T21:00:16.497Z,95366.19
2018-07-21T21:02:45.805Z,95367.75
2018-07-21T21:05:15.265Z,95361.95
2018-07-21T21:07:44.799Z,95368.50
2018-07-21T21:10:14.231Z,95367.06
2018-07-21T21:12:43.701Z,95363.73
2018-07-21T21:15:13.433Z,95361.34
2018-07-21T21:17:43.237Z,95366.12
2018-07-21T21:20:12.715Z,95364.14
2018-07-21T21:22:42.496Z,95359.31
2018-07-21T21:25:11.877Z,95365.00
2018-07-21T21:27:44.891Z,95362.52
2018-07-21T21:30:14.263Z,95362.02
2018-07-21T21:32:43.794Z,95365.70
2018-07-21T21:35:13.244Z,95368.96
2018-07-21T21:37:42.811Z,95371.52
2018-07-21T21:40:12.277Z,95369.98
2018-07-21T21:42:41.815Z,95373.28
2018-07-21T21:45:11.155Z,95358.60
2018-07-21T21:47:40.569Z,95357.75
2018-07-21T21:50:10.046Z,95360.17
2018-07-21T21:52:39.483Z,95365.08
2018-07-21T21:55:08.839Z,95363.91
2018-07-21T21:57:38.257Z,95356.74
2018-07-21T22:00:12.434Z,95361.66
2018-07-21T22:02:42.507Z,95362.51
2018-07-21T22:05:12.859Z,95362.42
2018-07-21T22:07:42.259Z,95367.20
2018-07-21T22:10:11.572Z,95356.08
2018-07-21T22:12:41.300Z,95363.38
2018-07-21T22:15:15.989Z,95362.69
2018-07-21T22:17:45.441Z,95359.17
2018-07-21T22:20:14.849Z,95359.50
2018-07-21T22:22:44.745Z,95366.62
2018-07-21T22:25:14.086Z,95359.72
2018-07-21T22:27:43.409Z,95358.69
2018-07-21T22:30:18.725Z,95361.52
2018-07-21T22:32:48.490Z,95355.39
2018-07-21T22:35:17.884Z,95350.12
2018-07-21T22:37:47.304Z,95356.12
2018-07-21T22:40:16.617Z,95360.23
2018-07-21T22:42:46.180Z,95356.67
2018-07-21T22:45:15.615Z,95361.98
2018-07-21T22:47:44.992Z,95355.40
2018-07-21T22:50:14.320Z,95359.22
2018-07-21T22:52:43.721Z,95357.45
2018-07-21T22:55:13.233Z,95355.71
2018-07-21T22:57:42.765Z,95366.63
2018-07-21T23:00:12.229Z,95363.69
2018-07-21T23:02:42.109Z,95363.20
2018-07-21T23:05:12.143Z,95353.86
2018-07-21T23:07:41.486Z,95355.34
2018-07-21T23:10:10.810Z,95351.08
2018-07-21T23:12:40.146Z,95357.16
2018-07-21T23:15:10.557Z,95356.34
2018-07-21T23:17:39.933Z,95350.97
2018-07-21T23:20:10.235Z,95352.14
2018-07-21T23:22:39.601Z,95354.89
2018-07-21T23:25:08.981Z,95349.90
2018-07-21T23:27:38.311Z,95344.09
2018-07-21T23:30:07.721Z,95348.06
2018-07-21T23:32:37.519Z,95353.91
2018-07-21T23:35:07.027Z,95342.42
2018-07-21T23:37:36.404Z,95348.47
2018-07-21T23:40:07.002Z,95345.27
2018-07-21T23:42:36.454Z,95353.91
2018-07-21T23:45:06.257Z,95348.52
2018-07-21T23:47:36.612Z,95345.94
2018-07-21T23:50:06.026Z,95342.69
2018-07-21T23:52:35.423Z,95346.74
2018-07-21T23:55:07.597Z,95348.47
2018-07-21T23:57:37.311Z,95342.78
